createdAt,value
2023-01-06T00:02:47.622Z,3.17
2023-01-06T00:07:52.258Z,3.17
2023-01-06T00:12:55.757Z,3.08
2023-01-06T00:17:59.257Z,3.11
2023-01-06T00:23:03.798Z,3.05
2023-01-06T00:28:07.477Z,3.08
2023-01-06T00:33:11.258Z,2.99
2023-01-06T00:38:14.928Z,2.89
2023-01-06T00:43:18.015Z,2.94
2023-01-06T00:48:21.779Z,2.91
2023-01-06T00:53:25.276Z,2.85
2023-01-06T00:58:32.872Z,2.88
2023-01-06T01:03:38.460Z,2.83
2023-01-06T01:08:42.102Z,2.78
2023-01-06T01:13:45.284Z,2.70
2023-01-06T01:18:49.256Z,2.74
2023-01-06T01:23:52.430Z,2.30
2023-01-06T01:28:56.096Z,2.56
2023-01-06T01:34:02.246Z,2.56
2023-01-06T01:39:06.459Z,2.57
2023-01-06T01:44:46.965Z,2.67
2023-01-06T01:49:54.690Z,2.61
2023-01-06T01:54:58.287Z,2.83
2023-01-06T02:00:05.364Z,2.91
2023-01-06T02:05:22.909Z,2.74
2023-01-06T02:10:26.758Z,2.57
2023-01-06T02:15:36.650Z,2.63
2023-01-06T02:21:39.172Z,2.66
2023-01-06T02:26:45.414Z,2.70
2023-01-06T02:32:14.785Z,2.71
2023-01-06T02:37:25.461Z,2.79
2023-01-06T02:42:43.875Z,2.85
2023-01-06T02:48:12.182Z,3.01
2023-01-06T02:53:22.492Z,3.16
2023-01-06T02:58:48.726Z,3.03
2023-01-06T03:03:54.125Z,3.14
2023-01-06T03:09:02.004Z,3.23
2023-01-06T03:14:18.623Z,3.12
2023-01-06T03:19:22.599Z,3.11
2023-01-06T03:24:26.420Z,3.04
2023-01-06T03:29:30.969Z,2.87
2023-01-06T03:35:02.792Z,2.90
2023-01-06T03:40:31.371Z,2.99
2023-01-06T03:45:51.945Z,3.00
2023-01-06T03:51:25.885Z,3.01
2023-01-06T03:56:39.802Z,2.92
2023-01-06T04:01:44.529Z,2.64
2023-01-06T04:06:49.139Z,2.44
2023-01-06T04:12:12.273Z,2.32
2023-01-06T04:17:16.564Z,2.30
2023-01-06T04:22:20.029Z,2.26
2023-01-06T04:27:23.528Z,2.32
2023-01-06T04:32:27.144Z,2.55
2023-01-06T04:37:30.854Z,2.64
2023-01-06T04:42:54.052Z,2.72
2023-01-06T04:47:57.674Z,2.78
2023-01-06T04:53:03.218Z,2.78
2023-01-06T04:58:06.331Z,2.74
2023-01-06T05:03:09.767Z,2.76
2023-01-06T05:08:13.547Z,2.71
2023-01-06T05:13:16.568Z,2.54
2023-01-06T05:18:19.597Z,2.50
2023-01-06T05:23:22.942Z,2.52
2023-01-06T05:28:26.644Z,2.39
2023-01-06T05:33:30.199Z,2.24
2023-01-06T05:38:34.349Z,2.15
2023-01-06T05:43:39.660Z,2.22
2023-01-06T05:48:42.810Z,2.18
2023-01-06T05:53:47.918Z,2.24
2023-01-06T05:58:53.084Z,2.33
2023-01-06T06:03:56.892Z,2.54
2023-01-06T06:09:00.024Z,2.67
2023-01-06T06:14:04.074Z,2.54
2023-01-06T06:19:07.346Z,2.48
2023-01-06T06:24:11.020Z,2.51
2023-01-06T06:29:16.667Z,2.47
2023-01-06T06:34:20.000Z,2.46
2023-01-06T06:39:23.618Z,2.54
2023-01-06T06:44:26.818Z,2.77
2023-01-06T06:49:30.289Z,3.00
2023-01-06T06:54:33.964Z,3.26
2023-01-06T06:59:37.498Z,3.56
2023-01-06T07:04:41.367Z,3.82
2023-01-06T07:09:45.340Z,4.02
2023-01-06T07:14:48.424Z,4.22
2023-01-06T07:19:51.569Z,6.37
2023-01-06T07:24:54.773Z,10.22
2023-01-06T07:29:57.822Z,13.38
2023-01-06T07:35:01.986Z,15.44
2023-01-06T07:40:05.741Z,17.46
2023-01-06T07:45:10.166Z,18.25
2023-01-06T07:50:14.332Z,18.89
2023-01-06T07:55:18.266Z,18.04
2023-01-06T08:00:22.737Z,17.94
2023-01-06T08:05:26.502Z,19.12
2023-01-06T08:10:29.563Z,19.63
2023-01-06T08:15:32.830Z,20.14
2023-01-06T08:20:36.591Z,18.94
2023-01-06T08:25:40.114Z,19.49
2023-01-06T08:30:44.447Z,19.60
2023-01-06T08:35:47.975Z,20.19
2023-01-06T08:40:53.712Z,19.47
2023-01-06T08:46:07.740Z,19.85
2023-01-06T08:51:19.757Z,20.44
2023-01-06T08:56:25.508Z,20.51
2023-01-06T09:01:32.315Z,19.90
2023-01-06T09:06:36.280Z,19.99
2023-01-06T09:11:44.420Z,20.58
2023-01-06T09:16:49.107Z,20.83
2023-01-06T09:21:53.174Z,20.12
2023-01-06T09:26:56.182Z,20.63
2023-01-06T09:31:59.524Z,21.19
2023-01-06T09:37:03.240Z,21.68
2023-01-06T09:42:27.594Z,23.50
2023-01-06T09:47:45.544Z,22.00
2023-01-06T09:53:03.092Z,21.67
2023-01-06T09:58:15.519Z,20.72
2023-01-06T10:03:28.083Z,20.88
2023-01-06T10:08:59.196Z,22.03
2023-01-06T10:14:26.139Z,21.36
2023-01-06T10:19:39.236Z,21.35
2023-01-06T10:24:57.203Z,20.94
2023-01-06T10:30:01.748Z,19.94
2023-01-06T10:35:13.734Z,21.28
2023-01-06T10:40:29.601Z,18.30
2023-01-06T10:45:34.858Z,19.06
2023-01-06T10:50:39.236Z,18.14
2023-01-06T10:55:48.872Z,17.67
2023-01-06T11:00:57.085Z,17.58
2023-01-06T11:06:19.139Z,15.84
2023-01-06T11:11:29.094Z,15.24
2023-01-06T11:16:36.548Z,14.68
2023-01-06T11:21:47.161Z,14.17
2023-01-06T11:26:54.791Z,14.38
2023-01-06T11:32:03.210Z,13.36
2023-01-06T11:37:06.321Z,13.36
2023-01-06T11:42:15.170Z,13.06
2023-01-06T11:47:23.623Z,13.26
2023-01-06T11:52:33.288Z,13.25
2023-01-06T11:57:45.191Z,13.02
2023-01-06T12:03:10.109Z,13.05
2023-01-06T12:08:27.283Z,13.02
2023-01-06T12:13:30.246Z,13.11
2023-01-06T12:18:38.664Z,12.95
2023-01-06T12:23:45.256Z,12.69
2023-01-06T12:28:51.240Z,12.64
2023-01-06T12:34:18.223Z,13.01
2023-01-06T12:39:55.801Z,13.44
2023-01-06T12:45:11.015Z,13.36
2023-01-06T12:50:26.952Z,13.82
2023-01-06T12:55:43.207Z,14.46
2023-01-06T13:00:53.092Z,14.75
2023-01-06T13:06:21.884Z,14.32
2023-01-06T13:11:42.970Z,14.13
2023-01-06T13:17:09.563Z,14.44
2023-01-06T13:22:18.518Z,14.09
2023-01-06T13:27:32.584Z,13.47
2023-01-06T13:32:43.973Z,13.72
2023-01-06T13:38:19.684Z,13.44
2023-01-06T13:43:27.175Z,13.23
2023-01-06T13:48:55.597Z,13.64
2023-01-06T13:54:00.671Z,13.08
2023-01-06T13:59:22.783Z,13.01
2023-01-06T14:04:42.355Z,12.74
2023-01-06T14:09:50.694Z,12.56
2023-01-06T14:15:04.381Z,12.64
2023-01-06T14:20:30.746Z,12.67
2023-01-06T14:25:40.424Z,13.51
2023-01-06T14:30:44.261Z,15.10
2023-01-06T14:35:48.172Z,13.75
2023-01-06T14:41:00.007Z,13.39
2023-01-06T14:46:09.466Z,13.04
2023-01-06T14:51:17.927Z,12.53
2023-01-06T14:56:24.114Z,11.94
2023-01-06T15:01:32.998Z,11.76
2023-01-06T15:06:36.399Z,11.65
2023-01-06T15:11:43.152Z,11.73
2023-01-06T15:16:46.943Z,11.95
2023-01-06T15:21:53.150Z,11.99
2023-01-06T15:27:03.093Z,11.56
2023-01-06T15:32:13.421Z,11.50
2023-01-06T15:37:23.953Z,11.29
2023-01-06T15:42:28.104Z,11.08
2023-01-06T15:47:47.764Z,10.83
2023-01-06T15:52:58.081Z,10.64
2023-01-06T15:58:07.602Z,10.42
2023-01-06T16:03:19.240Z,10.30
2023-01-06T16:08:27.712Z,10.25
2023-01-06T16:13:31.242Z,10.17
2023-01-06T16:18:37.071Z,10.24
2023-01-06T16:23:41.433Z,10.17
2023-01-06T16:28:49.601Z,10.13
2023-01-06T16:33:54.950Z,10.13
2023-01-06T16:38:58.254Z,10.08
2023-01-06T16:44:01.641Z,9.97
2023-01-06T16:49:10.936Z,9.95
2023-01-06T16:54:18.974Z,9.88
2023-01-06T16:59:27.118Z,9.82
2023-01-06T17:04:30.418Z,9.75
2023-01-06T17:09:35.393Z,9.72
2023-01-06T17:14:38.753Z,9.65
2023-01-06T17:19:43.231Z,9.50
2023-01-06T17:24:47.022Z,9.45
2023-01-06T17:29:51.871Z,9.40
2023-01-06T17:34:56.306Z,9.28
2023-01-06T17:39:59.880Z,9.08
2023-01-06T17:45:18.709Z,8.85
2023-01-06T17:50:35.147Z,8.53
2023-01-06T17:55:49.111Z,8.20
2023-01-06T18:00:54.743Z,7.89
2023-01-06T18:06:01.367Z,7.65
2023-01-06T18:11:11.881Z,7.38
2023-01-06T18:16:35.720Z,7.10
2023-01-06T18:21:40.458Z,6.99
2023-01-06T18:26:50.051Z,6.85
2023-01-06T18:31:54.961Z,6.66
2023-01-06T18:36:59.902Z,6.36
2023-01-06T18:42:22.039Z,6.36
2023-01-06T18:47:25.565Z,6.23
2023-01-06T18:52:39.035Z,6.06
2023-01-06T18:57:46.187Z,5.95
2023-01-06T19:02:52.651Z,5.88
2023-01-06T19:07:57.697Z,5.81
2023-01-06T19:13:04.042Z,5.76
2023-01-06T19:18:14.985Z,5.70
2023-01-06T19:23:24.142Z,5.75
2023-01-06T19:28:31.931Z,5.69
2023-01-06T19:33:47.874Z,5.59
2023-01-06T19:38:50.962Z,5.49
2023-01-06T19:44:15.579Z,5.40
2023-01-06T19:49:56.298Z,5.40
2023-01-06T19:55:27.039Z,5.51
2023-01-06T20:00:40.393Z,5.72
2023-01-06T20:05:44.180Z,5.88
2023-01-06T20:10:47.314Z,6.04
2023-01-06T20:15:51.058Z,6.08
2023-01-06T20:20:54.613Z,6.11
2023-01-06T20:25:58.264Z,6.06
2023-01-06T20:31:02.209Z,5.89
2023-01-06T20:36:07.201Z,5.79
2023-01-06T20:41:11.354Z,5.69
2023-01-06T20:46:14.838Z,5.63
2023-01-06T20:51:18.545Z,5.64
2023-01-06T20:56:21.659Z,5.78
2023-01-06T21:01:25.164Z,6.06
2023-01-06T21:06:28.623Z,6.20
2023-01-06T21:11:31.681Z,6.17
2023-01-06T21:16:35.537Z,6.07
2023-01-06T21:21:38.723Z,6.14
2023-01-06T21:26:41.816Z,6.07
2023-01-06T21:31:45.485Z,5.92
2023-01-06T21:36:48.794Z,5.87
2023-01-06T21:42:11.036Z,5.85
2023-01-06T21:47:16.247Z,5.71
2023-01-06T21:52:19.865Z,5.55
2023-01-06T21:57:23.008Z,5.42
2023-01-06T22:02:26.180Z,5.16
2023-01-06T22:07:30.126Z,5.06
2023-01-06T22:12:33.942Z,4.91
2023-01-06T22:17:37.501Z,4.82
2023-01-06T22:22:42.107Z,4.76
2023-01-06T22:27:45.364Z,4.70
2023-01-06T22:32:49.492Z,4.50
2023-01-06T22:37:52.699Z,4.56
2023-01-06T22:42:57.190Z,4.53
2023-01-06T22:48:03.769Z,4.47
2023-01-06T22:53:07.657Z,4.35
2023-01-06T22:58:11.851Z,4.16
2023-01-06T23:03:15.215Z,4.10
2023-01-06T23:08:18.786Z,4.02
2023-01-06T23:13:22.010Z,3.85
2023-01-06T23:18:25.434Z,3.75
2023-01-06T23:23:30.163Z,3.56
2023-01-06T23:28:34.865Z,3.46
2023-01-06T23:33:42.831Z,3.39
2023-01-06T23:38:47.001Z,3.35
2023-01-06T23:43:51.514Z,3.28
2023-01-06T23:48:54.983Z,3.17
2023-01-06T23:54:03.257Z,3.06
2023-01-06T23:59:08.739Z,3.05
